sensor_id;sensor_type;location;lat;lon;timestamp;temperature;humidity
18299;DHT22;9275;48.690;9.686;2024-01-10T00:02:58;-6.00;99.90
18299;DHT22;9275;48.690;9.686;2024-01-10T00:08:02;-6.00;99.90
18299;DHT22;9275;48.690;9.686;2024-01-10T00:13:08;-5.90;99.90
18299;DHT22;9275;48.690;9.686;2024-01-10T00:18:12;-5.90;99.90
18299;DHT22;9275;48.690;9.686;2024-01-10T00:23:17;-6.00;99.90
18299;DHT22;9275;48.690;9.686;2024-01-10T00:28:23;-6.00;99.90
18299;DHT22;9275;48.690;9.686;2024-01-10T00:33:28;-6.20;99.90
18299;DHT22;9275;48.690;9.686;2024-01-10T00:38:32;-6.20;99.90
18299;DHT22;9275;48.690;9.686;2024-01-10T00:43:38;-6.30;99.90
18299;DHT22;9275;48.690;9.686;2024-01-10T00:48:43;-6.40;99.90
18299;DHT22;9275;48.690;9.686;2024-01-10T00:53:47;-6.30;99.90
18299;DHT22;9275;48.690;9.686;2024-01-10T00:58:53;-6.20;99.90
18299;DHT22;9275;48.690;9.686;2024-01-10T01:04:00;-6.30;99.90
18299;DHT22;9275;48.690;9.686;2024-01-10T01:09:05;-6.30;99.90
18299;DHT22;9275;48.690;9.686;2024-01-10T01:14:11;-6.30;99.90
18299;DHT22;9275;48.690;9.686;2024-01-10T01:19:15;-6.40;99.90
18299;DHT22;9275;48.690;9.686;2024-01-10T01:24:20;-6.40;99.90
18299;DHT22;9275;48.690;9.686;2024-01-10T01:29:26;-6.40;99.90
18299;DHT22;9275;48.690;9.686;2024-01-10T01:34:32;-6.40;99.90
18299;DHT22;9275;48.690;9.686;2024-01-10T01:39:36;-6.40;99.90
18299;DHT22;9275;48.690;9.686;2024-01-10T01:44:43;-6.50;99.90
18299;DHT22;9275;48.690;9.686;2024-01-10T01:49:47;-6.50;99.90
18299;DHT22;9275;48.690;9.686;2024-01-10T01:54:52;-6.50;99.90
18299;DHT22;9275;48.690;9.686;2024-01-10T01:59:58;-6.60;99.90
18299;DHT22;9275;48.690;9.686;2024-01-10T02:05:03;-6.80;99.90
18299;DHT22;9275;48.690;9.686;2024-01-10T02:10:08;-6.90;99.90
18299;DHT22;9275;48.690;9.686;2024-01-10T02:15:14;-6.90;99.90
18299;DHT22;9275;48.690;9.686;2024-01-10T02:20:20;-7.00;99.90
18299;DHT22;9275;48.690;9.686;2024-01-10T02:25:26;-7.30;99.90
18299;DHT22;9275;48.690;9.686;2024-01-10T02:30:31;-7.20;99.90
18299;DHT22;9275;48.690;9.686;2024-01-10T02:35:36;-7.10;99.90
18299;DHT22;9275;48.690;9.686;2024-01-10T02:40:41;-7.10;99.90
18299;DHT22;9275;48.690;9.686;2024-01-10T02:45:46;-7.20;99.90
18299;DHT22;9275;48.690;9.686;2024-01-10T02:50:50;-7.40;99.90
18299;DHT22;9275;48.690;9.686;2024-01-10T02:55:56;-7.40;99.90
18299;DHT22;9275;48.690;9.686;2024-01-10T03:01:01;-7.30;99.90
18299;DHT22;9275;48.690;9.686;2024-01-10T03:06:05;-7.30;99.90
18299;DHT22;9275;48.690;9.686;2024-01-10T03:11:11;-7.10;99.90
18299;DHT22;9275;48.690;9.686;2024-01-10T03:16:16;-7.30;99.90
18299;DHT22;9275;48.690;9.686;2024-01-10T03:21:20;-7.50;99.90
18299;DHT22;9275;48.690;9.686;2024-01-10T03:26:29;-7.40;99.90
18299;DHT22;9275;48.690;9.686;2024-01-10T03:31:33;-7.40;99.90
18299;DHT22;9275;48.690;9.686;2024-01-10T03:36:38;-7.30;99.90
18299;DHT22;9275;48.690;9.686;2024-01-10T03:41:44;-7.30;99.90
18299;DHT22;9275;48.690;9.686;2024-01-10T03:46:48;-7.30;99.90
18299;DHT22;9275;48.690;9.686;2024-01-10T03:51:53;-7.40;99.90
18299;DHT22;9275;48.690;9.686;2024-01-10T03:56:59;-7.50;99.90
18299;DHT22;9275;48.690;9.686;2024-01-10T04:02:04;-7.50;99.90
18299;DHT22;9275;48.690;9.686;2024-01-10T04:07:09;-7.60;99.90
18299;DHT22;9275;48.690;9.686;2024-01-10T04:12:15;-7.70;99.90
18299;DHT22;9275;48.690;9.686;2024-01-10T04:17:20;-7.60;99.90
18299;DHT22;9275;48.690;9.686;2024-01-10T04:22:24;-7.70;99.90
18299;DHT22;9275;48.690;9.686;2024-01-10T04:27:30;-7.60;99.90
18299;DHT22;9275;48.690;9.686;2024-01-10T04:32:34;-7.80;99.90
18299;DHT22;9275;48.690;9.686;2024-01-10T04:37:39;-7.80;99.90
18299;DHT22;9275;48.690;9.686;2024-01-10T04:42:45;-7.90;99.90
18299;DHT22;9275;48.690;9.686;2024-01-10T04:47:49;-8.10;99.90
18299;DHT22;9275;48.690;9.686;2024-01-10T04:52:54;-8.30;99.90
18299;DHT22;9275;48.690;9.686;2024-01-10T04:58:00;-8.20;99.90
18299;DHT22;9275;48.690;9.686;2024-01-10T05:03:05;-8.10;99.90
18299;DHT22;9275;48.690;9.686;2024-01-10T05:08:10;-8.00;99.90
18299;DHT22;9275;48.690;9.686;2024-01-10T05:13:16;-8.00;99.90
18299;DHT22;9275;48.690;9.686;2024-01-10T05:18:21;-8.00;99.90
18299;DHT22;9275;48.690;9.686;2024-01-10T05:23:26;-8.00;99.90
18299;DHT22;9275;48.690;9.686;2024-01-10T05:28:32;-8.00;99.90
18299;DHT22;9275;48.690;9.686;2024-01-10T05:33:36;-8.10;99.90
18299;DHT22;9275;48.690;9.686;2024-01-10T05:38:41;-8.20;99.90
18299;DHT22;9275;48.690;9.686;2024-01-10T05:43:47;-8.00;99.90
18299;DHT22;9275;48.690;9.686;2024-01-10T05:48:51;-7.90;99.90
18299;DHT22;9275;48.690;9.686;2024-01-10T05:53:56;-7.90;99.90
18299;DHT22;9275;48.690;9.686;2024-01-10T05:59:02;-8.10;99.90
18299;DHT22;9275;48.690;9.686;2024-01-10T06:04:06;-8.20;99.90
18299;DHT22;9275;48.690;9.686;2024-01-10T06:09:11;-8.00;99.90
18299;DHT22;9275;48.690;9.686;2024-01-10T06:14:17;-8.10;99.90
18299;DHT22;9275;48.690;9.686;2024-01-10T06:19:22;-8.40;99.90
18299;DHT22;9275;48.690;9.686;2024-01-10T06:24:26;-8.40;99.90
18299;DHT22;9275;48.690;9.686;2024-01-10T06:29:32;-8.20;99.90
18299;DHT22;9275;48.690;9.686;2024-01-10T06:34:37;-8.20;99.90
18299;DHT22;9275;48.690;9.686;2024-01-10T06:39:41;-8.30;99.90
18299;DHT22;9275;48.690;9.686;2024-01-10T06:44:48;-8.30;99.90
18299;DHT22;9275;48.690;9.686;2024-01-10T06:49:52;-8.40;99.90
18299;DHT22;9275;48.690;9.686;2024-01-10T06:54:57;-8.40;99.90
18299;DHT22;9275;48.690;9.686;2024-01-10T07:00:03;-8.40;99.90
18299;DHT22;9275;48.690;9.686;2024-01-10T07:05:10;-8.60;99.90
18299;DHT22;9275;48.690;9.686;2024-01-10T07:10:15;-8.60;99.90
18299;DHT22;9275;48.690;9.686;2024-01-10T07:15:21;-8.60;99.90
18299;DHT22;9275;48.690;9.686;2024-01-10T07:20:25;-8.60;99.90
18299;DHT22;9275;48.690;9.686;2024-01-10T07:25:30;-8.60;99.90
18299;DHT22;9275;48.690;9.686;2024-01-10T07:30:36;-8.60;99.90
18299;DHT22;9275;48.690;9.686;2024-01-10T07:35:40;-8.70;99.90
18299;DHT22;9275;48.690;9.686;2024-01-10T07:40:45;-8.80;99.90
18299;DHT22;9275;48.690;9.686;2024-01-10T07:45:52;-8.90;99.90
18299;DHT22;9275;48.690;9.686;2024-01-10T07:50:56;-9.00;99.90
18299;DHT22;9275;48.690;9.686;2024-01-10T07:56:01;-9.10;99.90
18299;DHT22;9275;48.690;9.686;2024-01-10T08:01:07;-9.00;99.90
18299;DHT22;9275;48.690;9.686;2024-01-10T08:06:14;-8.80;99.90
18299;DHT22;9275;48.690;9.686;2024-01-10T08:11:31;-8.60;99.90
18299;DHT22;9275;48.690;9.686;2024-01-10T08:16:37;-8.50;99.90
18299;DHT22;9275;48.690;9.686;2024-01-10T08:21:41;-8.30;99.90
18299;DHT22;9275;48.690;9.686;2024-01-10T08:26:46;-8.40;99.90
18299;DHT22;9275;48.690;9.686;2024-01-10T08:31:53;-8.40;99.90
18299;DHT22;9275;48.690;9.686;2024-01-10T08:36:58;-8.50;99.90
18299;DHT22;9275;48.690;9.686;2024-01-10T08:42:03;-8.50;99.90
18299;DHT22;9275;48.690;9.686;2024-01-10T08:47:09;-8.60;99.90
18299;DHT22;9275;48.690;9.686;2024-01-10T08:52:14;-8.50;99.90
18299;DHT22;9275;48.690;9.686;2024-01-10T08:57:18;-8.30;99.90
18299;DHT22;9275;48.690;9.686;2024-01-10T09:02:24;-8.40;99.90
18299;DHT22;9275;48.690;9.686;2024-01-10T09:07:30;-8.30;99.90
18299;DHT22;9275;48.690;9.686;2024-01-10T09:12:35;-8.40;99.90
18299;DHT22;9275;48.690;9.686;2024-01-10T09:17:41;-8.40;99.90
18299;DHT22;9275;48.690;9.686;2024-01-10T09:22:45;-8.30;99.90
18299;DHT22;9275;48.690;9.686;2024-01-10T09:27:50;-8.30;99.90
18299;DHT22;9275;48.690;9.686;2024-01-10T09:32:55;-8.40;99.90
18299;DHT22;9275;48.690;9.686;2024-01-10T09:38:02;-8.40;99.90
18299;DHT22;9275;48.690;9.686;2024-01-10T09:43:07;-8.60;99.90
18299;DHT22;9275;48.690;9.686;2024-01-10T09:48:13;-8.40;99.90
18299;DHT22;9275;48.690;9.686;2024-01-10T09:53:22;-8.50;99.90
18299;DHT22;9275;48.690;9.686;2024-01-10T09:58:27;-8.20;99.90
18299;DHT22;9275;48.690;9.686;2024-01-10T10:03:36;-8.10;99.90
18299;DHT22;9275;48.690;9.686;2024-01-10T10:08:42;-8.00;99.90
18299;DHT22;9275;48.690;9.686;2024-01-10T10:13:46;-7.80;99.90
18299;DHT22;9275;48.690;9.686;2024-01-10T10:18:53;-7.60;99.90
18299;DHT22;9275;48.690;9.686;2024-01-10T10:24:01;-7.60;99.90
18299;DHT22;9275;48.690;9.686;2024-01-10T10:29:06;-7.50;99.90
18299;DHT22;9275;48.690;9.686;2024-01-10T10:34:12;-7.20;99.90
18299;DHT22;9275;48.690;9.686;2024-01-10T10:39:17;-6.80;99.90
18299;DHT22;9275;48.690;9.686;2024-01-10T10:44:24;-6.30;99.90
18299;DHT22;9275;48.690;9.686;2024-01-10T10:49:31;-5.90;99.90
18299;DHT22;9275;48.690;9.686;2024-01-10T10:54:36;-5.90;99.90
18299;DHT22;9275;48.690;9.686;2024-01-10T10:59:42;-6.40;99.10
18299;DHT22;9275;48.690;9.686;2024-01-10T11:04:48;-6.50;99.70
18299;DHT22;9275;48.690;9.686;2024-01-10T11:09:53;-6.60;98.70
18299;DHT22;9275;48.690;9.686;2024-01-10T11:15:12;-6.30;99.40
18299;DHT22;9275;48.690;9.686;2024-01-10T11:20:35;-6.20;99.90
18299;DHT22;9275;48.690;9.686;2024-01-10T11:25:43;-6.00;99.90
18299;DHT22;9275;48.690;9.686;2024-01-10T11:30:51;-5.80;99.90
18299;DHT22;9275;48.690;9.686;2024-01-10T11:36:17;-5.50;99.90
18299;DHT22;9275;48.690;9.686;2024-01-10T11:41:23;-5.20;99.90
18299;DHT22;9275;48.690;9.686;2024-01-10T11:46:27;-4.80;99.90
18299;DHT22;9275;48.690;9.686;2024-01-10T11:51:35;-4.60;99.90
18299;DHT22;9275;48.690;9.686;2024-01-10T11:56:41;-4.40;99.90
18299;DHT22;9275;48.690;9.686;2024-01-10T12:01:46;-4.20;99.90
18299;DHT22;9275;48.690;9.686;2024-01-10T12:06:52;-3.80;99.90
18299;DHT22;9275;48.690;9.686;2024-01-10T12:11:57;-3.50;99.90
18299;DHT22;9275;48.690;9.686;2024-01-10T12:17:02;-3.10;99.90
18299;DHT22;9275;48.690;9.686;2024-01-10T12:22:09;-2.80;99.90
18299;DHT22;9275;48.690;9.686;2024-01-10T12:27:16;-2.60;99.90
18299;DHT22;9275;48.690;9.686;2024-01-10T12:32:22;-2.40;99.90
18299;DHT22;9275;48.690;9.686;2024-01-10T12:37:29;-2.40;99.90
18299;DHT22;9275;48.690;9.686;2024-01-10T12:42:34;-2.60;99.90
18299;DHT22;9275;48.690;9.686;2024-01-10T12:47:39;-2.70;99.90
18299;DHT22;9275;48.690;9.686;2024-01-10T12:52:45;-2.60;99.90
18299;DHT22;9275;48.690;9.686;2024-01-10T12:57:51;-2.60;99.90
18299;DHT22;9275;48.690;9.686;2024-01-10T13:03:04;-2.60;99.90
18299;DHT22;9275;48.690;9.686;2024-01-10T13:08:10;-2.70;99.90
18299;DHT22;9275;48.690;9.686;2024-01-10T13:13:15;-2.60;99.90
18299;DHT22;9275;48.690;9.686;2024-01-10T13:18:20;-2.60;99.90
18299;DHT22;9275;48.690;9.686;2024-01-10T13:23:27;-2.50;99.90
18299;DHT22;9275;48.690;9.686;2024-01-10T13:28:31;-2.40;99.90
18299;DHT22;9275;48.690;9.686;2024-01-10T13:33:36;-2.50;99.90
18299;DHT22;9275;48.690;9.686;2024-01-10T13:38:50;-2.40;99.90
18299;DHT22;9275;48.690;9.686;2024-01-10T13:43:55;-2.60;99.90
18299;DHT22;9275;48.690;9.686;2024-01-10T13:48:59;-2.60;99.90
18299;DHT22;9275;48.690;9.686;2024-01-10T13:54:05;-2.70;99.90
18299;DHT22;9275;48.690;9.686;2024-01-10T13:59:10;-2.60;99.90
18299;DHT22;9275;48.690;9.686;2024-01-10T14:04:14;-2.80;99.90
18299;DHT22;9275;48.690;9.686;2024-01-10T14:09:20;-2.90;99.90
18299;DHT22;9275;48.690;9.686;2024-01-10T14:14:24;-3.10;99.90
18299;DHT22;9275;48.690;9.686;2024-01-10T14:19:29;-3.40;99.90
18299;DHT22;9275;48.690;9.686;2024-01-10T14:24:35;-3.50;99.90
18299;DHT22;9275;48.690;9.686;2024-01-10T14:29:39;-3.60;99.90
18299;DHT22;9275;48.690;9.686;2024-01-10T14:34:44;-3.60;99.90
18299;DHT22;9275;48.690;9.686;2024-01-10T14:39:51;-3.60;99.90
18299;DHT22;9275;48.690;9.686;2024-01-10T14:44:55;-3.70;99.90
18299;DHT22;9275;48.690;9.686;2024-01-10T14:50:01;-3.60;99.90
18299;DHT22;9275;48.690;9.686;2024-01-10T14:55:08;-3.90;99.90
18299;DHT22;9275;48.690;9.686;2024-01-10T15:00:13;-4.10;99.90
18299;DHT22;9275;48.690;9.686;2024-01-10T15:05:18;-4.20;99.90
18299;DHT22;9275;48.690;9.686;2024-01-10T15:10:25;-4.10;99.90
18299;DHT22;9275;48.690;9.686;2024-01-10T15:15:30;-4.30;99.90
18299;DHT22;9275;48.690;9.686;2024-01-10T15:20:35;-4.40;99.90
18299;DHT22;9275;48.690;9.686;2024-01-10T15:25:41;-4.50;99.90
18299;DHT22;9275;48.690;9.686;2024-01-10T15:30:46;-4.60;99.90
18299;DHT22;9275;48.690;9.686;2024-01-10T15:35:51;-4.40;99.90
18299;DHT22;9275;48.690;9.686;2024-01-10T15:40:59;-4.40;99.90
18299;DHT22;9275;48.690;9.686;2024-01-10T15:46:04;-4.40;99.90
18299;DHT22;9275;48.690;9.686;2024-01-10T15:51:09;-4.50;99.90
18299;DHT22;9275;48.690;9.686;2024-01-10T15:56:15;-4.50;99.90
18299;DHT22;9275;48.690;9.686;2024-01-10T16:01:21;-4.40;99.90
18299;DHT22;9275;48.690;9.686;2024-01-10T16:06:26;-4.50;99.90
18299;DHT22;9275;48.690;9.686;2024-01-10T16:11:39;-4.70;99.90
18299;DHT22;9275;48.690;9.686;2024-01-10T16:16:45;-4.60;99.90
18299;DHT22;9275;48.690;9.686;2024-01-10T16:21:50;-4.60;99.90
18299;DHT22;9275;48.690;9.686;2024-01-10T16:26:55;-4.60;99.90
18299;DHT22;9275;48.690;9.686;2024-01-10T16:32:00;-4.70;99.90
18299;DHT22;9275;48.690;9.686;2024-01-10T16:37:05;-4.80;99.90
18299;DHT22;9275;48.690;9.686;2024-01-10T16:42:12;-4.90;99.90
18299;DHT22;9275;48.690;9.686;2024-01-10T16:47:17;-4.90;99.90
18299;DHT22;9275;48.690;9.686;2024-01-10T16:52:21;-4.90;99.90
18299;DHT22;9275;48.690;9.686;2024-01-10T16:57:27;-4.90;99.90
18299;DHT22;9275;48.690;9.686;2024-01-10T17:02:32;-4.90;99.90
18299;DHT22;9275;48.690;9.686;2024-01-10T17:07:36;-4.90;99.90
18299;DHT22;9275;48.690;9.686;2024-01-10T17:12:42;-4.90;99.90
18299;DHT22;9275;48.690;9.686;2024-01-10T17:17:46;-4.70;99.90
18299;DHT22;9275;48.690;9.686;2024-01-10T17:22:51;-4.60;99.90
18299;DHT22;9275;48.690;9.686;2024-01-10T17:27:59;-4.60;99.90
18299;DHT22;9275;48.690;9.686;2024-01-10T17:33:04;-4.60;99.90
18299;DHT22;9275;48.690;9.686;2024-01-10T17:38:13;-4.50;99.90
18299;DHT22;9275;48.690;9.686;2024-01-10T17:43:19;-4.40;99.90
18299;DHT22;9275;48.690;9.686;2024-01-10T17:48:24;-4.60;99.90
18299;DHT22;9275;48.690;9.686;2024-01-10T17:53:28;-4.50;99.90
18299;DHT22;9275;48.690;9.686;2024-01-10T17:58:35;-4.40;99.90
18299;DHT22;9275;48.690;9.686;2024-01-10T18:03:40;-4.30;99.90
18299;DHT22;9275;48.690;9.686;2024-01-10T18:08:45;-4.40;99.90
18299;DHT22;9275;48.690;9.686;2024-01-10T18:13:51;-4.40;99.90
18299;DHT22;9275;48.690;9.686;2024-01-10T18:18:55;-4.30;99.90
18299;DHT22;9275;48.690;9.686;2024-01-10T18:24:00;-4.30;99.90
18299;DHT22;9275;48.690;9.686;2024-01-10T18:29:06;-4.20;99.90
18299;DHT22;9275;48.690;9.686;2024-01-10T18:34:10;-4.30;99.90
18299;DHT22;9275;48.690;9.686;2024-01-10T18:39:15;-4.40;99.90
18299;DHT22;9275;48.690;9.686;2024-01-10T18:44:24;-4.30;99.90
18299;DHT22;9275;48.690;9.686;2024-01-10T18:49:29;-4.20;99.90
18299;DHT22;9275;48.690;9.686;2024-01-10T18:54:33;-4.20;99.90
18299;DHT22;9275;48.690;9.686;2024-01-10T18:59:40;-4.30;99.90
18299;DHT22;9275;48.690;9.686;2024-01-10T19:04:45;-4.20;99.90
18299;DHT22;9275;48.690;9.686;2024-01-10T19:09:49;-4.40;99.90
18299;DHT22;9275;48.690;9.686;2024-01-10T19:14:55;-4.30;99.90
18299;DHT22;9275;48.690;9.686;2024-01-10T19:20:00;-4.20;99.90
18299;DHT22;9275;48.690;9.686;2024-01-10T19:25:05;-4.10;99.90
18299;DHT22;9275;48.690;9.686;2024-01-10T19:30:13;-3.90;99.90
18299;DHT22;9275;48.690;9.686;2024-01-10T19:35:23;-3.90;99.90
18299;DHT22;9275;48.690;9.686;2024-01-10T19:40:28;-3.90;99.90
18299;DHT22;9275;48.690;9.686;2024-01-10T19:45:34;-3.90;99.90
18299;DHT22;9275;48.690;9.686;2024-01-10T19:50:38;-3.90;99.90
18299;DHT22;9275;48.690;9.686;2024-01-10T19:55:43;-3.90;99.90
18299;DHT22;9275;48.690;9.686;2024-01-10T20:00:48;-3.90;99.90
18299;DHT22;9275;48.690;9.686;2024-01-10T20:05:53;-3.90;99.90
18299;DHT22;9275;48.690;9.686;2024-01-10T20:10:58;-4.20;99.90
18299;DHT22;9275;48.690;9.686;2024-01-10T20:16:04;-4.00;99.90
18299;DHT22;9275;48.690;9.686;2024-01-10T20:21:08;-3.90;99.90
18299;DHT22;9275;48.690;9.686;2024-01-10T20:26:13;-3.90;99.90
18299;DHT22;9275;48.690;9.686;2024-01-10T20:31:19;-3.80;99.90
18299;DHT22;9275;48.690;9.686;2024-01-10T20:36:24;-3.90;99.90
18299;DHT22;9275;48.690;9.686;2024-01-10T20:41:28;-3.80;99.90
18299;DHT22;9275;48.690;9.686;2024-01-10T20:46:35;-3.70;99.90
18299;DHT22;9275;48.690;9.686;2024-01-10T20:51:40;-3.70;99.90
18299;DHT22;9275;48.690;9.686;2024-01-10T20:56:44;-3.70;99.90
18299;DHT22;9275;48.690;9.686;2024-01-10T21:01:50;-3.90;99.90
18299;DHT22;9275;48.690;9.686;2024-01-10T21:06:54;-4.00;99.90
18299;DHT22;9275;48.690;9.686;2024-01-10T21:12:15;-3.80;99.90
18299;DHT22;9275;48.690;9.686;2024-01-10T21:17:21;-3.70;99.90
18299;DHT22;9275;48.690;9.686;2024-01-10T21:22:25;-3.60;99.90
18299;DHT22;9275;48.690;9.686;2024-01-10T21:27:30;-3.50;99.90
18299;DHT22;9275;48.690;9.686;2024-01-10T21:32:36;-3.50;99.90
18299;DHT22;9275;48.690;9.686;2024-01-10T21:37:40;-3.40;99.90
18299;DHT22;9275;48.690;9.686;2024-01-10T21:42:48;-3.40;99.90
18299;DHT22;9275;48.690;9.686;2024-01-10T21:47:55;-3.40;99.90
18299;DHT22;9275;48.690;9.686;2024-01-10T21:53:00;-3.30;99.90
18299;DHT22;9275;48.690;9.686;2024-01-10T21:58:05;-3.20;99.90
18299;DHT22;9275;48.690;9.686;2024-01-10T22:03:11;-3.10;99.90
18299;DHT22;9275;48.690;9.686;2024-01-10T22:08:29;-3.10;99.90
18299;DHT22;9275;48.690;9.686;2024-01-10T22:13:34;-3.10;99.90
18299;DHT22;9275;48.690;9.686;2024-01-10T22:18:40;-3.00;99.90
18299;DHT22;9275;48.690;9.686;2024-01-10T22:23:44;-3.00;99.90
18299;DHT22;9275;48.690;9.686;2024-01-10T22:28:49;-2.90;99.90
18299;DHT22;9275;48.690;9.686;2024-01-10T22:33:55;-2.90;99.90
18299;DHT22;9275;48.690;9.686;2024-01-10T22:39:00;-2.90;99.90
18299;DHT22;9275;48.690;9.686;2024-01-10T22:44:04;-2.90;99.90
18299;DHT22;9275;48.690;9.686;2024-01-10T22:49:10;-2.90;99.90
18299;DHT22;9275;48.690;9.686;2024-01-10T22:54:16;-2.90;99.90
18299;DHT22;9275;48.690;9.686;2024-01-10T22:59:22;-2.90;99.90
18299;DHT22;9275;48.690;9.686;2024-01-10T23:04:28;-2.90;99.90
18299;DHT22;9275;48.690;9.686;2024-01-10T23:09:32;-2.90;99.90
18299;DHT22;9275;48.690;9.686;2024-01-10T23:14:37;-2.80;99.90
18299;DHT22;9275;48.690;9.686;2024-01-10T23:19:43;-2.70;99.90
18299;DHT22;9275;48.690;9.686;2024-01-10T23:24:48;-2.60;99.90
18299;DHT22;9275;48.690;9.686;2024-01-10T23:29:52;-2.60;99.90
18299;DHT22;9275;48.690;9.686;2024-01-10T23:34:58;-2.50;99.90
18299;DHT22;9275;48.690;9.686;2024-01-10T23:40:04;-2.40;99.90
18299;DHT22;9275;48.690;9.686;2024-01-10T23:45:08;-2.30;99.90
18299;DHT22;9275;48.690;9.686;2024-01-10T23:50:14;-2.20;99.90
18299;DHT22;9275;48.690;9.686;2024-01-10T23:55:19;-2.00;99.90
